createdAt,value
2018-12-10T00:02:11.365Z,94467.11
2018-12-10T00:04:41.811Z,94471.01
2018-12-10T00:07:12.466Z,94465.13
2018-12-10T00:09:43.101Z,94464.63
2018-12-10T00:12:13.834Z,94466.14
2018-12-10T00:14:44.377Z,94473.11
2018-12-10T00:17:16.021Z,94480.86
2018-12-10T00:19:46.664Z,94483.96
2018-12-10T00:22:17.345Z,94490.27
2018-12-10T00:24:48.001Z,94492.72
2018-12-10T00:27:18.540Z,94501.39
2018-12-10T00:29:49.182Z,94496.23
2018-12-10T00:32:19.881Z,94495.27
2018-12-10T00:34:50.550Z,94496.42
2018-12-10T00:37:21.014Z,94491.12
2018-12-10T00:39:51.387Z,94502.34
2018-12-10T00:42:22.006Z,94503.98
2018-12-10T00:44:52.453Z,94495.06
2018-12-10T00:47:23.460Z,94500.34
2018-12-10T00:49:53.980Z,94498.59
2018-12-10T00:52:24.217Z,94499.70
2018-12-10T00:54:54.744Z,94492.85
2018-12-10T00:57:25.919Z,94493.89
2018-12-10T00:59:56.516Z,94486.66
2018-12-10T01:02:26.931Z,94489.56
2018-12-10T01:04:57.347Z,94486.95
2018-12-10T01:07:27.603Z,94481.97
2018-12-10T01:09:58.169Z,94488.34
2018-12-10T01:12:28.477Z,94477.61
2018-12-10T01:14:59.044Z,94466.55
2018-12-10T01:17:30.133Z,94456.41
2018-12-10T01:20:01.310Z,94448.61
2018-12-10T01:22:31.834Z,94448.47
2018-12-10T01:25:02.312Z,94446.98
2018-12-10T01:27:34.084Z,94443.73
2018-12-10T01:30:04.400Z,94441.19
2018-12-10T01:32:35.142Z,94438.14
2018-12-10T01:35:05.456Z,94433.34
2018-12-10T01:37:35.707Z,94433.16
2018-12-10T01:40:06.385Z,94435.44
2018-12-10T01:42:36.751Z,94429.98
2018-12-10T01:45:08.368Z,94419.55
2018-12-10T01:47:39.231Z,94423.12
2018-12-10T01:50:09.844Z,94414.46
2018-12-10T01:52:40.362Z,94400.08
2018-12-10T01:55:10.688Z,94403.08
2018-12-10T01:57:42.180Z,94398.05
2018-12-10T02:00:12.765Z,94403.73
2018-12-10T02:02:43.109Z,94391.22
2018-12-10T02:05:13.984Z,94386.47
2018-12-10T02:07:44.902Z,94380.77
2018-12-10T02:10:15.316Z,94380.59
2018-12-10T02:12:46.058Z,94384.35
2018-12-10T02:15:16.524Z,94382.49
2018-12-10T02:17:47.303Z,94381.93
2018-12-10T02:20:18.093Z,94381.94
2018-12-10T02:22:48.710Z,94373.54
2018-12-10T02:25:19.377Z,94362.42
2018-12-10T02:27:49.928Z,94350.27
2018-12-10T02:30:21.196Z,94346.31
2018-12-10T02:32:52.936Z,94348.47
2018-12-10T02:35:23.258Z,94335.58
2018-12-10T02:37:53.670Z,94335.54
2018-12-10T02:40:25.000Z,94341.02
2018-12-10T02:42:55.894Z,94340.07
2018-12-10T02:45:26.472Z,94342.52
2018-12-10T02:47:57.892Z,94341.03
2018-12-10T02:50:28.760Z,94343.55
2018-12-10T02:53:00.271Z,94343.35
2018-12-10T02:55:30.750Z,94292.23
2018-12-10T02:58:02.209Z,94340.73
2018-12-10T03:00:33.230Z,94339.67
2018-12-10T03:03:04.260Z,94335.69
2018-12-10T03:05:34.963Z,94342.28
2018-12-10T03:08:06.495Z,94342.20
2018-12-10T03:10:36.876Z,94344.43
2018-12-10T03:13:07.756Z,94335.61
2018-12-10T03:15:38.215Z,94343.69
2018-12-10T03:18:09.427Z,94343.88
2018-12-10T03:20:40.429Z,94342.88
2018-12-10T03:23:11.147Z,94344.47
2018-12-10T03:25:41.754Z,94344.86
2018-12-10T03:28:13.720Z,94341.31
2018-12-10T03:30:44.230Z,94336.56
2018-12-10T03:33:15.593Z,94335.28
2018-12-10T03:35:46.735Z,94338.52
2018-12-10T03:38:17.240Z,94338.77
2018-12-10T03:40:48.225Z,94334.66
2018-12-10T03:43:19.133Z,94334.00
2018-12-10T03:45:49.986Z,94337.70
2018-12-10T03:48:21.524Z,94330.52
2018-12-10T03:50:52.371Z,94330.98
2018-12-10T03:53:23.510Z,94328.38
2018-12-10T03:55:54.453Z,94324.86
2018-12-10T03:58:26.172Z,94326.72
2018-12-10T04:00:56.964Z,94331.47
2018-12-10T04:03:27.576Z,94340.31
2018-12-10T04:05:58.192Z,94348.72
2018-12-10T04:08:29.935Z,94351.13
2018-12-10T04:11:00.802Z,94347.83
2018-12-10T04:13:31.434Z,94344.38
2018-12-10T04:16:02.044Z,94337.23
2018-12-10T04:18:34.194Z,94339.67
2018-12-10T04:21:04.811Z,94337.09
2018-12-10T04:23:35.753Z,94344.59
2018-12-10T04:26:06.112Z,94340.55
2018-12-10T04:28:38.140Z,94336.41
2018-12-10T04:31:08.607Z,94336.00
2018-12-10T04:33:38.978Z,94334.58
2018-12-10T04:36:09.999Z,94338.78
2018-12-10T04:38:40.660Z,94342.77
2018-12-10T04:41:11.518Z,94337.78
2018-12-10T04:43:42.735Z,94332.23
2018-12-10T04:46:13.689Z,94336.00
2018-12-10T04:48:44.474Z,94339.13
2018-12-10T04:51:14.835Z,94338.69
2018-12-10T04:53:45.640Z,94342.33
2018-12-10T04:56:16.841Z,94343.33
2018-12-10T04:58:48.534Z,94339.71
2018-12-10T05:01:18.848Z,94338.31
2018-12-10T05:03:49.837Z,94345.36
2018-12-10T05:06:20.606Z,94340.50
2018-12-10T05:08:51.624Z,94341.61
2018-12-10T05:11:22.871Z,94352.19
2018-12-10T05:13:53.267Z,94296.48
2018-12-10T05:16:23.831Z,94345.27
2018-12-10T05:18:55.482Z,94340.27
2018-12-10T05:21:26.741Z,94330.23
2018-12-10T05:23:57.343Z,94333.78
2018-12-10T05:26:28.315Z,94334.08
2018-12-10T05:28:59.636Z,94319.03
2018-12-10T05:31:30.540Z,94324.18
2018-12-10T05:34:01.156Z,94330.73
2018-12-10T05:36:31.682Z,94330.34
2018-12-10T05:39:02.150Z,94320.91
2018-12-10T05:41:33.002Z,94311.83
2018-12-10T05:44:04.105Z,94312.02
2018-12-10T05:46:35.497Z,94308.66
2018-12-10T05:49:21.605Z,94312.94
2018-12-10T05:51:51.898Z,94319.09
2018-12-10T05:54:22.151Z,94314.61
2018-12-10T05:56:53.708Z,94306.25
2018-12-10T05:59:24.031Z,94304.21
2018-12-10T06:01:54.479Z,94307.56
2018-12-10T06:04:24.514Z,94312.09
2018-12-10T06:06:55.053Z,94309.67
2018-12-10T06:09:25.311Z,94306.66
2018-12-10T06:11:55.623Z,94306.46
2018-12-10T06:14:26.081Z,94298.09
2018-12-10T06:16:57.065Z,94296.68
2018-12-10T06:19:27.356Z,94306.45
2018-12-10T06:21:58.065Z,94316.44
2018-12-10T06:24:28.068Z,94316.97
2018-12-10T06:26:59.203Z,94312.06
2018-12-10T06:29:29.789Z,94312.31
2018-12-10T06:32:00.386Z,94311.00
2018-12-10T06:34:30.438Z,94316.33
2018-12-10T06:37:01.082Z,94322.17
2018-12-10T06:39:31.109Z,94325.06
2018-12-10T06:42:01.394Z,94327.66
2018-12-10T06:44:31.701Z,94329.41
2018-12-10T06:47:02.716Z,94337.03
2018-12-10T06:49:33.348Z,94342.36
2018-12-10T06:52:03.489Z,94337.66
2018-12-10T06:54:33.585Z,94326.57
2018-12-10T06:57:04.481Z,94334.86
2018-12-10T06:59:34.943Z,94339.73
2018-12-10T07:02:05.380Z,94327.44
2018-12-10T07:04:35.640Z,94331.53
2018-12-10T07:07:06.817Z,94340.95
2018-12-10T07:09:37.081Z,94336.70
2018-12-10T07:12:07.499Z,94335.21
2018-12-10T07:14:37.961Z,94343.81
2018-12-10T07:17:09.132Z,94341.41
2018-12-10T07:19:39.359Z,94354.00
2018-12-10T07:22:09.671Z,94355.70
2018-12-10T07:24:39.647Z,94359.14
2018-12-10T07:27:10.640Z,94359.66
2018-12-10T07:29:40.802Z,94368.84
2018-12-10T07:32:11.114Z,94366.23
2018-12-10T07:34:41.498Z,94373.00
2018-12-10T07:37:12.159Z,94375.61
2018-12-10T07:39:42.983Z,94386.86
2018-12-10T07:42:13.192Z,94394.28
2018-12-10T07:44:43.527Z,94387.12
2018-12-10T07:47:14.289Z,94389.66
2018-12-10T07:49:44.826Z,94406.30
2018-12-10T07:52:15.164Z,94410.64
2018-12-10T07:54:45.672Z,94411.12
2018-12-10T07:57:16.263Z,94403.59
2018-12-10T07:59:46.392Z,94412.86
2018-12-10T08:02:16.488Z,94412.72
2018-12-10T08:04:46.823Z,94411.36
2018-12-10T08:07:17.675Z,94408.71
2018-12-10T08:09:47.800Z,94416.98
2018-12-10T08:12:18.156Z,94417.41
2018-12-10T08:14:48.882Z,94424.09
2018-12-10T08:17:20.150Z,94420.23
2018-12-10T08:19:50.259Z,94420.22
2018-12-10T08:22:20.771Z,94430.30
2018-12-10T08:24:51.099Z,94423.06
2018-12-10T08:27:21.840Z,94420.08
2018-12-10T08:29:52.363Z,94411.89
2018-12-10T08:32:22.659Z,94415.07
2018-12-10T08:34:53.724Z,94419.02
2018-12-10T08:37:24.238Z,94421.34
2018-12-10T08:39:54.534Z,94422.55
2018-12-10T08:42:25.113Z,94413.78
2018-12-10T08:44:55.608Z,94417.85
2018-12-10T08:47:27.390Z,94413.84
2018-12-10T08:49:57.972Z,94414.27
2018-12-10T08:52:28.836Z,94410.97
2018-12-10T08:54:59.544Z,94408.84
2018-12-10T08:57:30.183Z,94402.14
2018-12-10T09:00:00.882Z,94403.80
2018-12-10T09:02:31.310Z,94398.36
2018-12-10T09:05:01.793Z,94398.84
2018-12-10T09:07:32.786Z,94395.47
2018-12-10T09:10:03.023Z,94391.25
2018-12-10T09:12:33.668Z,94392.27
2018-12-10T09:15:04.274Z,94394.11
2018-12-10T09:17:35.499Z,94390.71
2018-12-10T09:20:06.244Z,94387.81
2018-12-10T09:22:37.434Z,94385.19
2018-12-10T09:25:08.296Z,94380.98
2018-12-10T09:27:39.179Z,94378.62
2018-12-10T09:30:12.519Z,94379.44
2018-12-10T09:32:43.011Z,94373.12
2018-12-10T09:35:13.574Z,94373.92
2018-12-10T09:37:44.743Z,94371.30
2018-12-10T09:40:14.995Z,94371.06
2018-12-10T09:42:45.557Z,94373.42
2018-12-10T09:45:15.955Z,94363.42
2018-12-10T09:47:47.957Z,94366.61
2018-12-10T09:50:18.550Z,94328.72
2018-12-10T09:52:49.184Z,94356.84
2018-12-10T09:55:19.938Z,94357.12
2018-12-10T09:57:51.096Z,94356.59
2018-12-10T10:00:21.576Z,94360.79
2018-12-10T10:02:52.094Z,94358.17
2018-12-10T10:05:22.406Z,94361.34
2018-12-10T10:07:54.050Z,94353.18
2018-12-10T10:10:24.648Z,94349.74
2018-12-10T10:12:55.250Z,94345.80
2018-12-10T10:15:25.879Z,94350.83
2018-12-10T10:17:58.830Z,94345.54
2018-12-10T10:20:29.240Z,94342.66
2018-12-10T10:22:59.714Z,94339.55
2018-12-10T10:25:30.298Z,94347.41
2018-12-10T10:28:01.612Z,94340.86
2018-12-10T10:30:32.243Z,94336.09
2018-12-10T10:33:02.667Z,94335.84
2018-12-10T10:35:34.142Z,94334.28
2018-12-10T10:38:05.877Z,94287.71
2018-12-10T10:40:36.687Z,94330.05
2018-12-10T10:43:07.194Z,94330.56
2018-12-10T10:45:38.816Z,94326.38
2018-12-10T10:48:10.768Z,94324.77
2018-12-10T10:50:40.926Z,94327.66
2018-12-10T10:53:11.100Z,94323.96
2018-12-10T10:55:42.169Z,94324.23
2018-12-10T10:58:13.912Z,94314.98
2018-12-10T11:00:49.690Z,94314.42
2018-12-10T11:03:25.339Z,94315.48
2018-12-10T11:05:55.922Z,94310.80
2018-12-10T11:08:27.143Z,94308.72
2018-12-10T11:10:57.953Z,94309.55
2018-12-10T11:13:28.484Z,94306.34
2018-12-10T11:15:59.027Z,94300.53
2018-12-10T11:18:30.967Z,94296.88
2018-12-10T11:21:01.592Z,94296.66
2018-12-10T11:23:32.372Z,94303.23
2018-12-10T11:26:03.267Z,94306.11
2018-12-10T11:28:34.073Z,94305.06
2018-12-10T11:31:04.755Z,94302.80
2018-12-10T11:33:35.975Z,94298.30
2018-12-10T11:36:07.032Z,94294.22
2018-12-10T11:38:37.778Z,94296.36
2018-12-10T11:41:08.336Z,94308.08
2018-12-10T11:43:39.282Z,94303.54
2018-12-10T11:46:10.759Z,94307.44
2018-12-10T11:48:41.947Z,94309.02
2018-12-10T11:51:12.482Z,94303.05
2018-12-10T11:53:42.968Z,94305.97
2018-12-10T11:56:14.087Z,94302.93
2018-12-10T11:58:44.884Z,94308.61
2018-12-10T12:01:15.623Z,94302.03
2018-12-10T12:03:47.113Z,94294.67
2018-12-10T12:06:17.939Z,94291.33
2018-12-10T12:08:48.740Z,94283.22
2018-12-10T12:11:20.214Z,94281.92
2018-12-10T12:13:51.335Z,94280.94
2018-12-10T12:16:22.120Z,94282.27
2018-12-10T12:18:53.636Z,94277.08
2018-12-10T12:21:24.559Z,94267.81
2018-12-10T12:23:56.136Z,94268.34
2018-12-10T12:26:27.155Z,94261.47
2018-12-10T12:28:58.321Z,94263.16
2018-12-10T12:31:29.163Z,94258.78
2018-12-10T12:34:00.281Z,94262.75
2018-12-10T12:36:30.803Z,94263.29
2018-12-10T12:39:02.320Z,94039.72
2018-12-10T12:41:32.945Z,94259.19
2018-12-10T12:44:03.215Z,94250.20
2018-12-10T12:46:33.982Z,94248.82
2018-12-10T12:49:05.540Z,94249.80
2018-12-10T12:51:36.577Z,94241.63
2018-12-10T12:54:07.105Z,94244.19
2018-12-10T12:56:37.785Z,94237.98
2018-12-10T12:59:08.990Z,94228.28
2018-12-10T13:01:39.796Z,94231.23
2018-12-10T13:04:10.427Z,94229.73
2018-12-10T13:06:41.023Z,94235.59
2018-12-10T13:09:11.783Z,94237.45
2018-12-10T13:11:42.463Z,94237.80
2018-12-10T13:14:13.203Z,94238.50
2018-12-10T13:16:49.394Z,94243.47
2018-12-10T13:19:16.748Z,94242.41
2018-12-10T13:21:47.949Z,94241.42
2018-12-10T13:24:18.522Z,94244.42
2018-12-10T13:26:48.984Z,94244.89
2018-12-10T13:29:20.546Z,94249.61
2018-12-10T13:31:51.460Z,94253.64
2018-12-10T13:34:22.347Z,94257.11
2018-12-10T13:36:54.195Z,94258.42
2018-12-10T13:39:26.219Z,94256.09
2018-12-10T13:41:56.637Z,94262.12
2018-12-10T13:44:27.684Z,94258.11
2018-12-10T13:46:58.305Z,94260.16
2018-12-10T13:49:29.603Z,94256.75
2018-12-10T13:52:00.522Z,94264.59
2018-12-10T13:54:31.532Z,94268.41
2018-12-10T13:57:02.345Z,94267.60
2018-12-10T13:59:33.091Z,94270.17
2018-12-10T14:02:04.071Z,94266.90
2018-12-10T14:04:41.902Z,94262.53
2018-12-10T14:07:12.696Z,94269.19
2018-12-10T14:09:44.319Z,94262.85
2018-12-10T14:12:15.608Z,94266.45
2018-12-10T14:14:46.529Z,94267.06
2018-12-10T14:17:17.653Z,94268.36
2018-12-10T14:19:48.206Z,94256.48
2018-12-10T14:22:19.200Z,94263.47
2018-12-10T14:24:50.142Z,94262.11
2018-12-10T14:27:20.931Z,94257.57
2018-12-10T14:29:52.112Z,94264.42
2018-12-10T14:32:23.065Z,94264.63
2018-12-10T14:34:53.415Z,94262.61
2018-12-10T14:37:24.180Z,94268.02
2018-12-10T14:39:55.160Z,94267.45
2018-12-10T14:42:26.328Z,94260.45
2018-12-10T14:44:57.110Z,94265.55
2018-12-10T14:47:27.787Z,94267.63
2018-12-10T14:49:59.259Z,94263.64
2018-12-10T14:52:30.285Z,94264.99
2018-12-10T14:55:01.465Z,94259.69
2018-12-10T14:57:32.403Z,94258.28
2018-12-10T15:00:04.453Z,94262.68
2018-12-10T15:02:35.058Z,94262.86
2018-12-10T15:05:06.142Z,94266.88
2018-12-10T15:07:36.825Z,94261.97
2018-12-10T15:10:09.047Z,94265.12
2018-12-10T15:12:39.584Z,94266.68
2018-12-10T15:15:11.295Z,94269.58
2018-12-10T15:17:42.216Z,94275.13
2018-12-10T15:20:14.929Z,94275.55
2018-12-10T15:22:45.689Z,94276.42
2018-12-10T15:25:16.443Z,94280.37
2018-12-10T15:27:47.333Z,94286.30
2018-12-10T15:30:18.186Z,94283.20
2018-12-10T15:32:48.883Z,94295.61
2018-12-10T15:35:20.314Z,94294.23
2018-12-10T15:37:51.328Z,94304.70
2018-12-10T15:40:23.052Z,94306.21
2018-12-10T15:42:53.898Z,94309.30
2018-12-10T15:45:24.251Z,94315.84
2018-12-10T15:47:55.141Z,94317.39
2018-12-10T15:50:26.347Z,94325.36
2018-12-10T15:52:58.252Z,94324.87
2018-12-10T15:55:28.771Z,94322.82
2018-12-10T15:57:59.389Z,94337.33
2018-12-10T16:00:31.156Z,94345.53
2018-12-10T16:03:01.812Z,94347.13
2018-12-10T16:05:32.331Z,94347.67
2018-12-10T16:08:02.921Z,94348.45
2018-12-10T16:10:34.613Z,94366.57
2018-12-10T16:13:05.751Z,94361.23
2018-12-10T16:15:36.575Z,94362.83
2018-12-10T16:18:07.121Z,94367.06
2018-12-10T16:20:39.019Z,94362.30
2018-12-10T16:23:10.047Z,94364.62
2018-12-10T16:25:40.761Z,94370.36
2018-12-10T16:28:10.812Z,94377.31
2018-12-10T16:30:43.663Z,94376.55
2018-12-10T16:33:14.959Z,94372.30
2018-12-10T16:35:46.965Z,94371.28
2018-12-10T16:38:17.697Z,94380.00
2018-12-10T16:40:49.705Z,94378.99
2018-12-10T16:43:20.138Z,94385.81
2018-12-10T16:45:51.179Z,94386.87
2018-12-10T16:48:21.867Z,94384.47
2018-12-10T16:50:53.249Z,94381.30
2018-12-10T16:53:24.257Z,94384.45
2018-12-10T16:55:54.987Z,94399.23
2018-12-10T16:58:25.308Z,94400.03
2018-12-10T17:00:57.039Z,94397.39
2018-12-10T17:03:28.403Z,94406.83
2018-12-10T17:05:58.920Z,94414.50
2018-12-10T17:08:29.649Z,94411.59
2018-12-10T17:11:01.195Z,94415.81
2018-12-10T17:13:31.856Z,94413.42
2018-12-10T17:16:03.003Z,94420.52
2018-12-10T17:18:33.682Z,94412.54
2018-12-10T17:21:05.823Z,94421.78
2018-12-10T17:23:36.580Z,94429.85
2018-12-10T17:26:08.314Z,94423.86
2018-12-10T17:28:38.959Z,94436.47
2018-12-10T17:31:10.307Z,94440.64
2018-12-10T17:33:40.737Z,94444.07
2018-12-10T17:36:11.279Z,94452.63
2018-12-10T17:38:41.835Z,94454.69
2018-12-10T17:41:13.531Z,94457.68
2018-12-10T17:43:44.139Z,94455.37
2018-12-10T17:46:15.045Z,94459.59
2018-12-10T17:48:45.345Z,94462.19
2018-12-10T17:51:16.304Z,94465.22
2018-12-10T17:53:47.212Z,94467.44
2018-12-10T17:56:18.138Z,94466.22
2018-12-10T17:58:48.548Z,94470.33
2018-12-10T18:01:19.488Z,94465.72
2018-12-10T18:03:50.057Z,94462.36
2018-12-10T18:06:20.675Z,94460.47
2018-12-10T18:08:51.128Z,94468.63
2018-12-10T18:11:21.916Z,94467.28
2018-12-10T18:13:52.293Z,94472.08
2018-12-10T18:16:22.661Z,94477.78
2018-12-10T18:18:53.172Z,94465.95
2018-12-10T18:21:25.174Z,94470.97
2018-12-10T18:23:55.835Z,94477.08
2018-12-10T18:26:26.665Z,94478.95
2018-12-10T18:28:57.207Z,94481.08
2018-12-10T18:31:28.375Z,94482.64
2018-12-10T18:33:59.510Z,94482.12
2018-12-10T18:36:30.239Z,94473.70
2018-12-10T18:39:00.804Z,94472.63
2018-12-10T18:41:31.992Z,94479.21
2018-12-10T18:44:02.487Z,94483.95
2018-12-10T18:46:32.982Z,94494.75
2018-12-10T18:49:03.370Z,94491.57
2018-12-10T18:51:34.470Z,94497.62
2018-12-10T18:54:04.947Z,94495.00
2018-12-10T18:56:35.590Z,94494.76
2018-12-10T18:59:05.976Z,94493.67
2018-12-10T19:01:37.336Z,94499.46
2018-12-10T19:04:08.102Z,94502.38
2018-12-10T19:06:38.719Z,94507.44
2018-12-10T19:09:09.722Z,94512.36
2018-12-10T19:11:40.595Z,94521.05
2018-12-10T19:14:11.099Z,94509.68
2018-12-10T19:16:41.324Z,94514.95
2018-12-10T19:19:11.646Z,94520.18
2018-12-10T19:21:43.131Z,94521.89
2018-12-10T19:24:13.510Z,94519.00
2018-12-10T19:26:44.107Z,94523.52
2018-12-10T19:29:14.613Z,94521.42
2018-12-10T19:31:46.081Z,94515.82
2018-12-10T19:34:16.788Z,94520.39
2018-12-10T19:36:47.324Z,94513.38
2018-12-10T19:39:17.854Z,94519.71
2018-12-10T19:41:48.626Z,94523.67
2018-12-10T19:44:19.100Z,94524.41
2018-12-10T19:46:49.948Z,94519.85
2018-12-10T19:49:20.600Z,94532.86
2018-12-10T19:51:52.630Z,94531.57
2018-12-10T19:54:23.034Z,94526.91
2018-12-10T19:56:53.561Z,94532.67
2018-12-10T19:59:24.092Z,94532.83
2018-12-10T20:01:54.952Z,94539.59
2018-12-10T20:04:25.738Z,94542.78
2018-12-10T20:07:10.665Z,94538.41
2018-12-10T20:09:40.849Z,94540.27
2018-12-10T20:12:11.606Z,94539.06
2018-12-10T20:14:41.901Z,94533.41
2018-12-10T20:17:12.264Z,94526.80
2018-12-10T20:19:42.875Z,94533.23
2018-12-10T20:22:13.795Z,94531.03
2018-12-10T20:24:44.140Z,94538.77
2018-12-10T20:27:15.966Z,94544.25
2018-12-10T20:29:46.444Z,94548.70
2018-12-10T20:32:17.180Z,94549.08
2018-12-10T20:34:48.101Z,94553.53
2018-12-10T20:37:18.966Z,94554.13
2018-12-10T20:39:49.580Z,94558.17
2018-12-10T20:42:20.129Z,94558.34
2018-12-10T20:44:51.028Z,94561.50
2018-12-10T20:47:21.653Z,94568.88
2018-12-10T20:49:52.091Z,94589.94
2018-12-10T20:52:23.891Z,94568.94
2018-12-10T20:54:54.511Z,94563.66
2018-12-10T20:57:25.241Z,94562.89
2018-12-10T20:59:55.773Z,94572.07
2018-12-10T21:02:29.199Z,94570.44
2018-12-10T21:04:58.943Z,94574.33
2018-12-10T21:07:29.676Z,94578.17
2018-12-10T21:10:00.290Z,94572.78
2018-12-10T21:12:31.126Z,94595.14
2018-12-10T21:15:01.700Z,94580.63
2018-12-10T21:17:32.441Z,94584.38
2018-12-10T21:20:02.928Z,94578.67
2018-12-10T21:22:33.381Z,94587.70
2018-12-10T21:25:04.175Z,94583.09
2018-12-10T21:27:34.922Z,94581.44
2018-12-10T21:30:05.763Z,94593.77
2018-12-10T21:32:37.361Z,94583.10
2018-12-10T21:35:07.934Z,94585.56
2018-12-10T21:37:38.273Z,94594.55
2018-12-10T21:40:08.698Z,94591.59
2018-12-10T21:42:40.056Z,94590.34
2018-12-10T21:45:10.965Z,94601.53
2018-12-10T21:47:41.060Z,94598.47
2018-12-10T21:50:11.398Z,94586.03
2018-12-10T21:52:42.147Z,94590.91
2018-12-10T21:55:16.899Z,94585.42
2018-12-10T21:57:45.697Z,94590.56
2018-12-10T22:00:16.525Z,94605.91
2018-12-10T22:02:48.133Z,94601.70
2018-12-10T22:05:18.840Z,94601.36
2018-12-10T22:07:49.574Z,94603.10
2018-12-10T22:10:20.201Z,94605.61
2018-12-10T22:12:51.210Z,94604.33
2018-12-10T22:15:21.743Z,94598.13
2018-12-10T22:17:52.293Z,94603.70
2018-12-10T22:20:22.880Z,94614.04
2018-12-10T22:22:54.403Z,94620.47
2018-12-10T22:25:24.870Z,94617.16
2018-12-10T22:27:55.432Z,94620.46
2018-12-10T22:30:26.645Z,94615.04
2018-12-10T22:32:58.394Z,94624.23
2018-12-10T22:35:30.052Z,94634.78
2018-12-10T22:38:00.703Z,94643.94
2018-12-10T22:40:31.584Z,94648.06
2018-12-10T22:43:03.201Z,94642.58
2018-12-10T22:45:34.360Z,94651.86
2018-12-10T22:48:05.785Z,94657.52
2018-12-10T22:50:36.394Z,94661.97
2018-12-10T22:53:07.294Z,94663.72
2018-12-10T22:55:38.201Z,94666.77
2018-12-10T22:58:08.643Z,94668.71
2018-12-10T23:00:47.768Z,94670.00
2018-12-10T23:03:18.687Z,94664.95
2018-12-10T23:05:51.187Z,94666.39
2018-12-10T23:08:22.120Z,94405.31
2018-12-10T23:10:52.534Z,94667.52
2018-12-10T23:13:23.656Z,94674.07
2018-12-10T23:15:55.010Z,94680.52
2018-12-10T23:18:25.336Z,94673.55
2018-12-10T23:20:55.932Z,94680.71
2018-12-10T23:23:27.588Z,94686.73
2018-12-10T23:25:58.514Z,94689.30
2018-12-10T23:28:29.339Z,94699.67
2018-12-10T23:31:00.281Z,94703.04
2018-12-10T23:33:32.590Z,94700.59
2018-12-10T23:36:03.426Z,94706.38
2018-12-10T23:38:34.073Z,94704.32
2018-12-10T23:41:04.849Z,94711.66
2018-12-10T23:43:35.836Z,94718.27
2018-12-10T23:46:06.623Z,94723.25
2018-12-10T23:48:37.240Z,94726.70
2018-12-10T23:51:08.696Z,94726.97
2018-12-10T23:53:39.454Z,94719.13
2018-12-10T23:56:10.141Z,94723.44
2018-12-10T23:58:40.776Z,94675.19
